Time;durP1;ratioP1;P1;durP2;ratioP2;P2;SDS_P1;SDS_P2;PMS_P1;PMS_P2;Temp;Humidity;BMP_temperature;BMP_pressure;BME280_temperature;BME280_humidity;BME280_pressure;Samples;Min_cycle;Max_cycle;Signal;HPM_P1;HPM_P2
2021/11/10 00:04:40;;;;;;;67.80;37.10;;;;;;;2.10;84.09;100201.52;215116;1316;26332;-77
2021/11/10 00:09:43;;;;;;;95.40;49.50;;;;;;;1.91;83.22;100199.33;214966;1318;24343;-77
2021/11/10 00:14:45;;;;;;;85.30;45.50;;;;;;;1.70;82.90;100201.41;214764;1317;24237;-76
2021/11/10 00:19:48;;;;;;;93.70;45.20;;;;;;;1.50;82.78;100194.48;215487;1317;24489;-76
2021/11/10 00:24:53;;;;;;;87.20;45.10;;;;;;;1.47;83.32;100189.01;215447;1316;25438;-75
2021/11/10 00:29:59;;;;;;;85.70;45.40;;;;;;;1.43;83.63;100188.98;215499;1317;22669;-76
2021/11/10 00:35:01;;;;;;;80.50;40.80;;;;;;;1.41;83.70;100185.40;214996;1316;26511;-76
2021/11/10 00:40:05;;;;;;;75.80;38.70;;;;;;;1.38;83.92;100188.95;214907;1317;24313;-77
2021/11/10 00:45:08;;;;;;;72.40;37.50;;;;;;;1.38;83.98;100184.71;215362;1317;24259;-76
2021/11/10 00:50:11;;;;;;;64.70;35.00;;;;;;;1.43;84.38;100181.42;215473;1317;22582;-76
2021/11/10 00:55:14;;;;;;;69.00;37.10;;;;;;;1.44;84.39;100183.34;215374;1317;24290;-76
2021/11/10 01:00:17;;;;;;;70.80;35.90;;;;;;;1.50;84.96;100178.91;215115;1317;22651;-75
2021/11/10 01:05:20;;;;;;;72.70;36.10;;;;;;;1.49;84.46;100178.58;215019;1316;24266;-76
2021/11/10 01:10:23;;;;;;;64.00;33.40;;;;;;;1.44;84.33;100170.95;215344;1316;24282;-76
2021/11/10 01:15:27;;;;;;;66.30;34.00;;;;;;;1.44;84.48;100164.45;215371;1315;24231;-76
2021/11/10 01:20:30;;;;;;;58.90;30.90;;;;;;;1.42;84.26;100169.48;215594;1316;25170;-76
2021/11/10 01:25:40;;;;;;;56.90;28.50;;;;;;;1.40;84.06;100159.31;215275;1310;24260;-75
2021/11/10 01:31:05;;;;;;;;;;;;;;;1.35;84.13;100168.38;214337;1318;24276;-75
2021/11/10 01:36:08;;;;;;;32.20;18.50;;;;;;;1.26;83.95;100167.05;215397;1316;24362;-77
2021/11/10 01:41:12;;;;;;;36.70;19.90;;;;;;;1.12;83.45;100165.23;215018;1316;24255;-76
2021/11/10 01:46:17;;;;;;;37.20;21.70;;;;;;;0.98;83.46;100158.02;215061;1316;24262;-76
2021/11/10 01:51:19;;;;;;;31.70;18.20;;;;;;;0.89;83.23;100154.23;215124;1313;24404;-76
2021/11/10 01:56:27;;;;;;;33.20;20.50;;;;;;;0.79;83.30;100146.24;215013;1319;22599;-76
2021/11/10 02:01:30;;;;;;;32.00;19.60;;;;;;;0.71;83.54;100135.34;215350;1316;24288;-76
2021/11/10 02:06:42;;;;;;;31.90;18.70;;;;;;;0.64;83.60;100135.81;215580;1317;22678;-75
2021/11/10 02:12:05;;;;;;;29.50;17.50;;;;;;;0.55;83.51;100131.95;214435;1317;25384;-76
2021/11/10 02:17:18;;;;;;;32.70;19.30;;;;;;;0.47;83.79;100124.37;215033;1317;25040;-77
2021/11/10 02:22:32;;;;;;;34.20;19.40;;;;;;;0.42;83.80;100118.82;215023;1316;24198;-76
2021/11/10 02:27:40;;;;;;;35.60;20.60;;;;;;;0.43;84.19;100118.48;215623;1317;22542;-76
2021/11/10 02:33:01;;;;;;;35.00;19.00;;;;;;;0.41;84.04;100104.89;215348;1310;24272;-76
2021/11/10 02:38:07;;;;;;;30.00;15.20;;;;;;;0.32;83.66;100088.31;215077;1317;25300;-75
2021/11/10 02:43:22;;;;;;;29.20;17.10;;;;;;;0.24;83.69;100074.92;215195;1317;22577;-78
2021/11/10 02:48:36;;;;;;;30.80;17.40;;;;;;;0.10;83.77;100052.04;215214;1316;24305;-76
2021/11/10 02:53:39;;;;;;;29.10;18.10;;;;;;;-0.04;84.03;100043.39;214978;1317;24282;-76
2021/11/10 02:58:42;;;;;;;31.20;17.00;;;;;;;-0.12;84.37;100042.42;215201;1314;24237;-76
2021/11/10 03:03:46;;;;;;;32.00;18.50;;;;;;;-0.07;84.94;100038.95;214979;1317;24285;-77
2021/11/10 03:08:49;;;;;;;36.50;20.20;;;;;;;0.03;85.34;100042.77;215301;1314;24430;-76
2021/11/10 03:13:52;;;;;;;37.20;21.00;;;;;;;0.12;85.61;100046.30;215376;1317;24463;-76
2021/11/10 03:18:58;;;;;;;39.60;22.30;;;;;;;0.20;85.53;100036.09;215096;1317;23289;-76
2021/11/10 03:24:04;;;;;;;43.00;22.30;;;;;;;0.23;85.25;100039.27;215334;1316;24404;-76
2021/11/10 03:29:17;;;;;;;39.10;21.80;;;;;;;0.21;85.12;100043.30;215423;1317;22590;-76
2021/11/10 03:34:28;;;;;;;37.50;20.20;;;;;;;0.20;85.00;100043.87;214342;1319;22644;-76
2021/11/10 03:39:35;;;;;;;40.10;21.50;;;;;;;0.14;84.75;100051.76;214892;1317;24257;-76
2021/11/10 03:44:39;;;;;;;39.50;21.00;;;;;;;0.07;85.12;100048.66;215201;1317;22710;-76
2021/11/10 03:49:41;;;;;;;39.60;21.10;;;;;;;0.02;85.05;100046.58;215057;1317;24747;-76
2021/11/10 03:54:45;;;;;;;40.30;20.00;;;;;;;-0.01;85.03;100042.34;215121;1317;24308;-76
2021/11/10 03:59:48;;;;;;;41.00;20.80;;;;;;;-0.03;85.16;100047.79;215671;1315;24272;-76
2021/11/10 04:04:51;;;;;;;37.70;19.90;;;;;;;-0.03;85.23;100056.25;214701;1318;25463;-76
2021/11/10 04:09:55;;;;;;;37.10;21.00;;;;;;;-0.05;85.08;100057.91;214966;1317;24282;-76
2021/11/10 04:14:57;;;;;;;38.60;20.90;;;;;;;-0.08;85.15;100060.05;214708;1316;24254;-76
2021/11/10 04:20:01;;;;;;;42.40;22.00;;;;;;;-0.12;85.17;100065.57;215206;1317;24368;-76
2021/11/10 04:25:05;;;;;;;38.40;21.80;;;;;;;-0.14;85.05;100064.85;215484;1316;26443;-76
2021/11/10 04:30:13;;;;;;;42.40;21.20;;;;;;;-0.19;85.00;100063.67;215025;1317;26699;-76
2021/11/10 04:35:17;;;;;;;37.90;20.30;;;;;;;-0.22;84.94;100053.10;215131;1317;24403;-76
2021/11/10 04:40:21;;;;;;;35.20;20.20;;;;;;;-0.25;84.90;100055.91;215031;1315;22604;-77
2021/11/10 04:45:32;;;;;;;41.30;21.00;;;;;;;-0.26;85.10;100060.98;215183;1317;25477;-76
2021/11/10 04:50:35;;;;;;;41.00;22.60;;;;;;;-0.27;85.10;100062.52;215072;1317;25524;-77
2021/11/10 04:55:50;;;;;;;39.80;22.60;;;;;;;-0.23;85.45;100064.11;214929;1320;24285;-76
2021/11/10 05:01:00;;;;;;;38.90;21.90;;;;;;;-0.20;85.43;100058.98;214970;1318;22817;-76
2021/11/10 05:06:03;;;;;;;42.90;22.80;;;;;;;-0.22;85.12;100048.15;215465;1316;24284;-76
2021/11/10 05:11:06;;;;;;;46.30;23.10;;;;;;;-0.25;85.22;100043.59;214848;1319;238010;-75
2021/11/10 05:16:14;;;;;;;41.90;23.00;;;;;;;-0.22;85.34;100037.95;215147;1317;25463;-76
2021/11/10 05:21:18;;;;;;;43.00;23.30;;;;;;;-0.16;85.49;100040.80;214737;1313;25542;-77
2021/11/10 05:26:21;;;;;;;40.40;22.40;;;;;;;-0.14;85.25;100035.55;214956;1316;22577;-76
2021/11/10 05:31:37;;;;;;;38.10;21.90;;;;;;;-0.13;85.18;100028.39;215199;1314;24261;-77
2021/11/10 05:36:56;;;;;;;30.00;17.80;;;;;;;-0.11;85.10;100024.36;215072;1310;24231;-77
2021/11/10 05:41:59;;;;;;;38.50;21.60;;;;;;;-0.21;84.44;100017.98;215085;1316;22589;-77
2021/11/10 05:47:02;;;;;;;39.10;22.70;;;;;;;-0.32;84.66;100017.98;215311;1316;25419;-76
2021/11/10 05:52:18;;;;;;;44.60;24.70;;;;;;;-0.35;84.69;100017.34;214969;1316;22723;-76
2021/11/10 05:57:48;;;;;;;41.40;24.30;;;;;;;-0.29;85.09;100023.38;215043;1314;22567;-77
2021/11/10 06:03:11;;;;;;;42.30;24.10;;;;;;;-0.21;85.46;100029.48;215007;1317;24219;-76
2021/11/10 06:08:13;;;;;;;42.90;22.00;;;;;;;-0.13;85.42;100030.94;215213;1310;22697;-77
2021/11/10 06:13:37;;;;;;;36.80;19.80;;;;;;;-0.05;85.48;100032.96;215380;1317;25370;-77
2021/11/10 06:18:40;;;;;;;40.50;21.60;;;;;;;-0.01;85.30;100037.20;215371;1314;22571;-75
2021/11/10 06:23:43;;;;;;;44.70;23.30;;;;;;;0.03;85.36;100035.31;215544;1317;24331;-76
2021/11/10 06:28:45;;;;;;;55.00;28.80;;;;;;;0.06;85.33;100045.84;215382;1310;25198;-77
2021/11/10 06:33:51;;;;;;;50.10;30.20;;;;;;;0.12;85.36;100044.40;215139;1316;22577;-77
2021/11/10 06:38:54;;;;;;;56.20;30.80;;;;;;;0.20;85.57;100045.45;214918;1310;24279;-77
2021/11/10 06:43:56;;;;;;;52.90;28.00;;;;;;;0.27;85.32;100046.13;215142;1317;24333;-77
2021/11/10 06:48:59;;;;;;;51.60;29.10;;;;;;;0.36;85.77;100044.13;215703;1314;25270;-75
2021/11/10 06:54:02;;;;;;;55.50;30.50;;;;;;;0.46;85.55;100042.21;215716;1317;24755;-77
2021/11/10 06:59:06;;;;;;;66.10;36.90;;;;;;;0.55;85.53;100033.12;215655;1316;24253;-76
2021/11/10 07:04:12;;;;;;;64.00;33.40;;;;;;;0.68;85.21;100034.02;215733;1309;23049;-76
2021/11/10 07:09:14;;;;;;;61.10;32.90;;;;;;;0.82;85.55;100030.05;215595;1310;25665;-77
2021/11/10 07:14:17;;;;;;;69.20;34.30;;;;;;;0.99;85.62;100021.92;215973;1313;24260;-77
2021/11/10 07:19:20;;;;;;;67.60;35.20;;;;;;;1.15;85.69;100015.91;215515;1309;22639;-76
2021/11/10 07:24:24;;;;;;;66.10;37.00;;;;;;;1.38;85.48;100004.56;215356;1310;22769;-76
2021/11/10 07:29:38;;;;;;;68.10;36.90;;;;;;;1.57;85.46;100003.36;215321;1310;24246;-77
2021/11/10 07:34:55;;;;;;;77.30;39.90;;;;;;;1.75;85.53;99997.36;215500;1310;25271;-77
2021/11/10 07:39:59;;;;;;;74.60;39.50;;;;;;;1.92;85.50;99995.14;215379;1310;24231;-76
2021/11/10 07:45:08;;;;;;;80.20;39.80;;;;;;;2.14;85.68;99991.79;215364;1313;22573;-78
2021/11/10 07:50:22;;;;;;;79.20;43.80;;;;;;;2.35;85.74;99989.83;215535;1314;22796;-75
2021/11/10 07:55:25;;;;;;;86.00;44.90;;;;;;;2.59;85.71;99981.96;215216;1310;25703;-76
2021/11/10 08:00:29;;;;;;;85.10;44.50;;;;;;;2.82;85.80;99984.00;215433;1310;24298;-76
2021/11/10 08:05:32;;;;;;;98.60;50.80;;;;;;;3.06;85.74;99985.02;215556;1310;25479;-76
2021/11/10 08:10:48;;;;;;;83.20;44.20;;;;;;;3.35;86.12;99975.52;214858;1312;22594;-76
2021/11/10 08:15:53;;;;;;;55.30;31.50;;;;;;;3.69;86.37;99974.77;215539;1310;24251;-78
2021/11/10 08:20:58;;;;;;;53.90;29.30;;;;;;;4.05;86.45;99971.20;215605;1310;22715;-78
2021/11/10 08:26:01;;;;;;;48.10;29.40;;;;;;;4.35;86.24;99969.15;215244;1312;22576;-78
2021/11/10 08:31:04;;;;;;;46.60;28.10;;;;;;;4.67;86.38;99963.91;215324;1317;24358;-78
2021/11/10 08:36:07;;;;;;;49.60;27.40;;;;;;;4.98;86.09;99954.71;215293;1310;22598;-78
2021/11/10 08:41:09;;;;;;;48.10;26.20;;;;;;;5.26;85.66;99956.28;215323;1310;24196;-78
2021/11/10 08:46:13;;;;;;;41.20;25.00;;;;;;;5.55;85.29;99956.89;215608;1310;22637;-77
2021/11/10 08:51:19;;;;;;;38.90;23.80;;;;;;;5.83;84.87;99959.69;215472;1310;24231;-77
2021/11/10 08:56:23;;;;;;;37.80;22.70;;;;;;;6.12;84.48;99961.96;215542;1310;22634;-77
2021/11/10 09:01:25;;;;;;;42.10;25.30;;;;;;;6.39;84.09;99952.46;215368;1309;25483;-77
2021/11/10 09:06:29;;;;;;;44.30;25.70;;;;;;;6.66;83.81;99953.60;215753;1310;22613;-76
2021/11/10 09:11:44;;;;;;;39.80;22.00;;;;;;;6.89;83.26;99953.89;215790;1310;22613;-74
2021/11/10 09:17:08;;;;;;;32.50;20.10;;;;;;;7.17;82.45;99952.39;215703;1310;22640;-75
2021/11/10 09:22:11;;;;;;;31.30;19.00;;;;;;;7.31;81.42;99948.04;215575;1310;25479;-74
2021/11/10 09:27:14;;;;;;;28.30;17.30;;;;;;;7.51;81.55;99944.99;214616;1312;25409;-75
2021/11/10 09:32:37;;;;;;;29.10;17.00;;;;;;;7.70;80.19;99941.44;215353;1309;22558;-75
2021/11/10 09:38:02;;;;;;;28.90;15.90;;;;;;;7.86;80.01;99942.17;215237;1310;24257;-75
2021/11/10 09:43:06;;;;;;;25.40;15.60;;;;;;;8.12;80.15;99937.53;215116;1310;23794;-75
2021/11/10 09:48:08;;;;;;;24.00;15.60;;;;;;;8.35;79.43;99932.48;215469;1309;25422;-76
2021/11/10 09:53:13;;;;;;;25.90;15.80;;;;;;;8.52;79.06;99929.89;215094;1310;24301;-76
2021/11/10 09:58:16;;;;;;;17.10;11.70;;;;;;;8.71;78.36;99921.66;215276;1310;22597;-77
2021/11/10 10:03:26;;;;;;;21.50;12.30;;;;;;;8.81;76.93;99922.00;215320;1310;22703;-77
2021/11/10 10:08:28;;;;;;;18.30;12.10;;;;;;;8.95;76.96;99916.18;214855;1313;22577;-77
2021/11/10 10:13:31;;;;;;;18.50;12.50;;;;;;;9.12;76.34;99905.58;215263;1310;22618;-77
2021/11/10 10:18:47;;;;;;;16.60;11.00;;;;;;;9.34;76.58;99903.34;215233;1310;24286;-78
2021/11/10 10:24:10;;;;;;;13.10;8.80;;;;;;;9.53;75.86;99902.73;215378;1310;25391;-77
2021/11/10 10:29:13;;;;;;;12.30;7.50;;;;;;;9.62;74.65;99893.39;215410;1310;22563;-78
2021/11/10 10:34:18;;;;;;;9.90;6.70;;;;;;;9.82;74.76;99884.39;215257;1310;22709;-78
2021/11/10 10:39:21;;;;;;;8.60;5.80;;;;;;;10.05;74.26;99878.94;215626;1310;24260;-77
2021/11/10 10:44:27;;;;;;;6.20;4.80;;;;;;;10.25;73.77;99871.36;215519;1313;24250;-77
2021/11/10 10:49:44;;;;;;;5.60;3.90;;;;;;;10.34;70.91;99858.33;215881;1310;26528;-77
2021/11/10 10:54:51;;;;;;;5.90;3.60;;;;;;;10.38;69.65;99853.45;216002;1313;22744;-78
2021/11/10 11:00:10;;;;;;;3.60;2.70;;;;;;;10.51;69.24;99854.82;215562;1310;24666;-77
2021/11/10 11:05:40;;;;;;;4.10;2.90;;;;;;;10.65;67.57;99851.27;215946;1310;22622;-79
2021/11/10 11:10:42;;;;;;;4.60;3.10;;;;;;;10.71;66.80;99850.48;215581;1310;22702;-77
2021/11/10 11:16:07;;;;;;;6.50;3.90;;;;;;;10.74;65.13;99845.58;215358;1310;24812;-78
2021/11/10 11:21:24;;;;;;;12.00;5.20;;;;;;;10.75;63.17;99843.05;215051;1310;24311;-78
2021/11/10 11:26:41;;;;;;;8.50;5.10;;;;;;;10.82;64.43;99838.25;215375;1310;22566;-79
2021/11/10 11:31:44;;;;;;;9.10;5.80;;;;;;;10.96;64.66;99826.48;216042;1314;22588;-77
2021/11/10 11:36:55;;;;;;;10.10;6.50;;;;;;;11.03;63.01;99819.76;215671;1313;25168;-78
2021/11/10 11:41:58;;;;;;;10.20;6.40;;;;;;;11.05;63.73;99808.55;215807;1310;22610;-78
2021/11/10 11:47:02;;;;;;;12.90;7.30;;;;;;;11.13;63.94;99803.89;215755;1310;22615;-78
2021/11/10 11:52:15;;;;;;;14.90;8.10;;;;;;;11.18;63.85;99799.33;215594;1310;24414;-78
2021/11/10 11:57:22;;;;;;;10.90;7.20;;;;;;;11.20;64.32;99790.61;215349;1310;24474;-77
2021/11/10 12:02:42;;;;;;;10.00;6.60;;;;;;;11.23;64.08;99785.23;215575;1310;25332;-77
2021/11/10 12:08:00;;;;;;;10.40;6.70;;;;;;;11.28;64.33;99777.52;215594;1310;24324;-76
2021/11/10 12:13:12;;;;;;;11.60;6.90;;;;;;;11.34;64.18;99772.84;215318;1310;22715;-76
2021/11/10 12:18:20;;;;;;;15.30;8.40;;;;;;;11.39;64.13;99768.18;215269;1313;22641;-76
2021/11/10 12:23:23;;;;;;;11.20;7.20;;;;;;;11.48;63.76;99761.79;215891;1310;22513;-75
2021/11/10 12:28:50;;;;;;;14.20;7.80;;;;;;;11.51;62.72;99761.14;215594;1310;22630;-76
2021/11/10 12:33:58;;;;;;;16.20;8.30;;;;;;;11.46;62.42;99749.48;215364;1313;22726;-76
2021/11/10 12:39:03;;;;;;;11.60;8.20;;;;;;;11.43;62.78;99740.65;215573;1313;22615;-76
2021/11/10 12:44:26;;;;;;;14.80;7.80;;;;;;;11.42;62.69;99738.23;216478;1313;22587;-76
2021/11/10 12:49:30;;;;;;;14.30;7.90;;;;;;;11.39;62.37;99730.73;216188;1310;25457;-77
2021/11/10 12:54:33;;;;;;;13.30;7.50;;;;;;;11.28;62.37;99731.96;215621;1314;24276;-77
2021/11/10 12:59:46;;;;;;;12.50;7.40;;;;;;;11.11;62.13;99728.70;215888;1310;22572;-76
2021/11/10 13:04:54;;;;;;;12.80;7.80;;;;;;;11.02;62.59;99728.80;215887;1309;22566;-76
2021/11/10 13:10:21;;;;;;;12.60;7.90;;;;;;;11.01;62.84;99717.88;208135;1313;10360778;-76
2021/11/10 13:15:41;;;;;;;11.20;7.10;;;;;;;11.00;62.64;99714.06;215823;1314;24259;-76
2021/11/10 13:20:46;;;;;;;14.80;7.90;;;;;;;10.99;62.14;99708.73;215280;1314;24215;-75
2021/11/10 13:26:08;;;;;;;10.60;6.90;;;;;;;10.98;62.51;99709.50;215461;1313;25640;-75
2021/11/10 13:31:12;;;;;;;9.70;5.70;;;;;;;10.95;62.35;99707.73;215319;1310;22736;-76
2021/11/10 13:36:22;;;;;;;12.50;6.20;;;;;;;10.87;62.37;99698.13;215120;1313;24292;-76
2021/11/10 13:41:34;;;;;;;9.60;5.90;;;;;;;10.74;62.37;99698.88;215232;1313;24442;-76
2021/11/10 13:46:46;;;;;;;9.00;5.70;;;;;;;10.62;62.63;99698.20;215143;1310;24241;-76
2021/11/10 13:52:10;;;;;;;7.70;5.10;;;;;;;10.50;62.89;99689.67;215675;1310;22603;-76
2021/11/10 13:57:21;;;;;;;8.10;5.10;;;;;;;10.39;62.98;99687.52;215624;1313;22605;-76
2021/11/10 14:02:34;;;;;;;10.70;5.60;;;;;;;10.29;63.26;99679.15;215188;1310;24246;-76
2021/11/10 14:07:41;;;;;;;6.80;5.00;;;;;;;10.20;63.39;99677.52;215364;1310;22577;-76
2021/11/10 14:12:44;;;;;;;5.20;3.80;;;;;;;10.10;63.40;99670.20;215441;1310;23030;-76
2021/11/10 14:17:49;;;;;;;6.10;3.30;;;;;;;9.99;63.61;99671.46;215379;1310;24324;-76
2021/11/10 14:23:05;;;;;;;5.80;3.50;;;;;;;9.89;63.69;99668.58;215415;1310;24400;-77
2021/11/10 14:28:08;;;;;;;5.60;3.40;;;;;;;9.77;63.92;99667.89;215656;1310;22742;-77
2021/11/10 14:33:11;;;;;;;8.00;3.20;;;;;;;9.65;63.85;99667.77;215268;1315;25486;-77
2021/11/10 14:38:28;;;;;;;5.10;3.30;;;;;;;9.50;63.86;99670.11;215558;1310;22580;-76
2021/11/10 14:43:36;;;;;;;4.80;3.30;;;;;;;9.32;64.05;99668.98;215153;1313;24264;-76
2021/11/10 14:48:40;;;;;;;6.90;4.20;;;;;;;9.12;64.04;99662.27;215363;1314;25396;-78
2021/11/10 14:53:59;;;;;;;5.10;3.90;;;;;;;8.92;64.44;99664.10;215350;1310;24257;-78
2021/11/10 14:59:07;;;;;;;5.60;4.30;;;;;;;8.71;64.58;99661.58;215326;1312;22679;-77
2021/11/10 15:04:27;;;;;;;5.40;4.10;;;;;;;8.49;64.84;99659.94;215517;1310;25460;-77
2021/11/10 15:09:30;;;;;;;8.10;4.70;;;;;;;8.30;65.08;99658.75;215778;1313;22602;-77
2021/11/10 15:14:50;;;;;;;10.60;4.80;;;;;;;8.16;65.38;99657.11;215873;1310;24377;-76
2021/11/10 15:20:20;;;;;;;10.60;5.50;;;;;;;8.05;65.56;99657.84;215597;1317;24282;-76
2021/11/10 15:25:26;;;;;;;10.30;6.20;;;;;;;7.96;65.91;99658.83;215545;1313;22574;-77
2021/11/10 15:30:35;;;;;;;13.00;7.20;;;;;;;7.87;66.28;99660.73;215895;1316;22589;-76
2021/11/10 15:35:41;;;;;;;36.50;16.70;;;;;;;7.73;66.62;99663.77;215659;1313;22739;-77
2021/11/10 15:40:46;;;;;;;20.40;10.90;;;;;;;7.59;66.62;99660.75;215616;1316;25069;-77
2021/11/10 15:45:48;;;;;;;16.20;8.40;;;;;;;7.59;66.61;99663.96;215639;1310;23784;-76
2021/11/10 15:50:57;;;;;;;13.00;7.10;;;;;;;7.74;66.36;99669.91;214897;1317;25111;-77
2021/11/10 15:55:59;;;;;;;11.40;6.70;;;;;;;7.91;65.83;99663.65;215918;1316;22610;-76
2021/11/10 16:01:03;;;;;;;13.80;6.80;;;;;;;8.01;65.31;99660.42;215426;1310;23037;-77
2021/11/10 16:06:09;;;;;;;13.70;7.10;;;;;;;8.03;64.86;99667.05;215823;1316;23416;-76
2021/11/10 16:11:23;;;;;;;14.40;8.40;;;;;;;8.04;64.91;99663.77;215931;1314;22607;-77
2021/11/10 16:16:40;;;;;;;20.90;10.60;;;;;;;8.02;64.80;99668.07;215788;1317;22648;-76
2021/11/10 16:21:43;;;;;;;30.90;15.20;;;;;;;7.95;64.73;99669.11;215821;1310;24327;-77
2021/11/10 16:26:50;;;;;;;39.30;20.90;;;;;;;7.85;64.89;99660.49;215644;1310;25287;-76
2021/11/10 16:37:14;;;;;;;18.90;11.00;;;;;;;7.65;64.53;99659.39;215557;1310;22593;-76
2021/11/10 16:42:18;;;;;;;13.50;8.00;;;;;;;7.68;64.48;99670.60;215788;1315;24292;-76
2021/11/10 16:47:21;;;;;;;15.90;8.80;;;;;;;7.74;64.10;99668.15;215738;1315;25428;-76
2021/11/10 16:52:24;;;;;;;14.40;8.10;;;;;;;7.72;64.20;99677.46;215577;1315;24282;-77
2021/11/10 16:57:26;;;;;;;16.10;9.90;;;;;;;7.65;64.01;99677.70;215596;1314;25660;-77
2021/11/10 17:02:29;;;;;;;14.60;8.90;;;;;;;7.59;64.03;99681.61;215862;1310;24221;-76
2021/11/10 17:07:32;;;;;;;17.40;9.80;;;;;;;7.53;64.27;99681.27;215616;1316;24259;-77
2021/11/10 17:12:41;;;;;;;17.60;10.60;;;;;;;7.44;64.19;99687.27;215622;1316;22585;-77
2021/11/10 17:17:55;;;;;;;17.60;10.10;;;;;;;7.35;64.51;99682.40;215541;1315;24244;-77
2021/11/10 17:23:15;;;;;;;18.10;11.60;;;;;;;7.26;64.55;99677.64;215484;1314;24291;-78
2021/11/10 17:28:18;;;;;;;22.20;12.50;;;;;;;7.21;64.57;99675.37;215961;1316;22580;-77
2021/11/10 17:33:21;;;;;;;19.60;11.80;;;;;;;7.14;64.64;99674.91;215557;1316;24248;-77
2021/11/10 17:38:23;;;;;;;15.30;9.50;;;;;;;7.13;64.70;99667.03;215698;1317;25241;-76
2021/11/10 17:43:27;;;;;;;16.10;10.10;;;;;;;7.13;64.68;99660.59;215704;1317;23134;-77
2021/11/10 17:48:30;;;;;;;13.60;8.90;;;;;;;7.14;64.98;99667.17;215919;1315;22584;-76
2021/11/10 17:53:33;;;;;;;12.50;7.30;;;;;;;7.13;65.20;99666.46;215954;1316;24974;-77
2021/11/10 17:58:36;;;;;;;13.10;7.90;;;;;;;7.12;65.29;99665.36;215595;1313;24304;-78
2021/11/10 18:03:38;;;;;;;13.10;8.70;;;;;;;7.11;65.63;99668.45;216122;1310;24260;-76
2021/11/10 18:08:41;;;;;;;12.20;7.80;;;;;;;7.11;65.46;99666.00;215586;1314;24254;-78
2021/11/10 18:13:44;;;;;;;9.90;6.10;;;;;;;7.16;65.41;99665.70;215926;1310;24439;-77
2021/11/10 18:18:46;;;;;;;8.60;6.30;;;;;;;7.25;65.42;99663.07;215829;1315;22689;-77
2021/11/10 18:23:56;;;;;;;10.70;6.70;;;;;;;7.32;64.76;99659.16;215463;1317;24260;-76
2021/11/10 18:29:20;;;;;;;10.70;7.80;;;;;;;7.36;64.80;99662.91;216060;1316;24359;-76
2021/11/10 18:34:23;;;;;;;9.60;6.60;;;;;;;7.35;64.70;99661.88;215705;1317;24282;-77
2021/11/10 18:39:27;;;;;;;10.60;6.80;;;;;;;7.33;64.81;99656.84;215761;1317;25392;-77
2021/11/10 18:44:31;;;;;;;11.40;8.10;;;;;;;7.30;64.64;99662.18;215640;1315;24253;-77
2021/11/10 18:49:33;;;;;;;9.70;6.40;;;;;;;7.23;64.94;99669.15;215853;1311;26639;-76
2021/11/10 18:54:37;;;;;;;12.30;8.20;;;;;;;7.13;65.04;99664.75;215634;1317;22574;-77
2021/11/10 18:59:39;;;;;;;11.60;7.90;;;;;;;7.05;65.27;99671.27;215727;1314;24253;-78
2021/11/10 19:04:49;;;;;;;9.80;6.80;;;;;;;6.95;65.32;99668.85;215867;1316;24346;-77
2021/11/10 19:10:41;;;;;;;10.20;6.30;;;;;;;6.89;65.48;99663.73;215773;1317;25411;-77
2021/11/10 19:15:36;;;;;;;9.90;6.60;;;;;;;6.87;65.55;99652.78;215566;1315;22679;-76
2021/11/10 19:26:17;;;;;;;14.40;7.30;;;;;;;6.80;65.70;99654.59;215502;1316;25432;-76
2021/11/10 19:31:45;;;;;;;11.30;7.10;;;;;;;6.75;65.54;99658.78;215692;1313;24234;-77
2021/11/10 19:36:48;;;;;;;9.60;6.60;;;;;;;6.67;65.79;99654.38;215747;1316;25398;-76
2021/11/10 19:41:51;;;;;;;10.70;7.20;;;;;;;6.63;66.14;99655.80;216068;1310;22579;-76
2021/11/10 19:46:54;;;;;;;9.90;6.50;;;;;;;6.61;66.37;99649.13;215612;1315;22580;-76
2021/11/10 19:51:58;;;;;;;13.30;9.00;;;;;;;6.61;66.03;99650.34;215760;1316;22627;-77
2021/11/10 19:57:05;;;;;;;11.70;7.10;;;;;;;6.57;66.26;99646.44;215712;1315;24365;-76
2021/11/10 20:02:09;;;;;;;10.70;7.20;;;;;;;6.52;66.20;99644.44;216121;1316;22583;-77
2021/11/10 20:07:12;;;;;;;13.10;7.80;;;;;;;6.46;66.41;99641.36;215926;1316;22792;-76
2021/11/10 20:12:14;;;;;;;11.60;7.40;;;;;;;6.40;66.64;99640.92;216104;1310;23951;-77
2021/11/10 20:17:18;;;;;;;10.70;6.70;;;;;;;6.32;66.80;99641.48;216063;1315;24429;-77
2021/11/10 20:22:21;;;;;;;12.90;7.70;;;;;;;6.27;66.74;99639.64;216114;1316;25467;-77
2021/11/10 20:27:25;;;;;;;11.40;7.60;;;;;;;6.24;66.90;99631.39;216014;1316;25331;-76
2021/11/10 20:32:28;;;;;;;13.30;7.50;;;;;;;6.23;67.09;99627.58;215821;1316;24205;-75
2021/11/10 20:37:31;;;;;;;13.60;7.80;;;;;;;6.20;67.28;99627.48;215791;1316;22726;-77
2021/11/10 20:42:34;;;;;;;12.10;8.00;;;;;;;6.19;67.53;99627.47;215665;1316;22585;-77
2021/11/10 20:47:37;;;;;;;11.70;7.30;;;;;;;6.14;67.54;99624.34;215642;1316;22848;-76
2021/11/10 20:52:40;;;;;;;14.00;8.50;;;;;;;6.11;67.61;99632.31;215648;1319;24260;-77
2021/11/10 20:57:44;;;;;;;11.10;7.30;;;;;;;6.07;67.70;99629.70;215538;1317;22974;-76
2021/11/10 21:02:47;;;;;;;12.00;8.00;;;;;;;6.02;67.90;99626.19;215170;1319;25331;-76
2021/11/10 21:08:00;;;;;;;13.60;7.50;;;;;;;5.98;68.17;99626.67;207548;1313;10366332;-77
2021/11/10 21:13:22;;;;;;;12.70;7.80;;;;;;;5.95;68.18;99626.24;215705;1316;22642;-77
2021/11/10 21:18:27;;;;;;;12.40;7.70;;;;;;;5.92;68.33;99632.22;215348;1312;24266;-76
2021/11/10 21:23:31;;;;;;;12.20;7.60;;;;;;;5.92;68.68;99636.98;215421;1319;24285;-76
2021/11/10 21:28:33;;;;;;;11.70;7.20;;;;;;;5.96;68.75;99636.64;215410;1313;24367;-76
2021/11/10 21:33:37;;;;;;;12.30;7.20;;;;;;;5.96;68.71;99632.74;215985;1316;22659;-75
2021/11/10 21:38:39;;;;;;;10.60;7.00;;;;;;;5.95;68.69;99637.95;215761;1316;24286;-76
2021/11/10 21:43:44;;;;;;;10.50;7.00;;;;;;;5.95;68.78;99651.45;215688;1318;24231;-77
2021/11/10 21:48:46;;;;;;;10.90;6.70;;;;;;;5.92;68.65;99655.23;215599;1317;24257;-76
2021/11/10 21:53:50;;;;;;;10.80;6.80;;;;;;;5.85;68.96;99649.45;215554;1317;24286;-76
2021/11/10 21:58:53;;;;;;;10.90;7.20;;;;;;;5.82;69.18;99639.14;215588;1317;24256;-77
2021/11/10 22:03:55;;;;;;;9.70;6.50;;;;;;;5.78;69.38;99637.66;215743;1314;24254;-77
2021/11/10 22:08:58;;;;;;;11.00;6.60;;;;;;;5.75;69.80;99635.05;216062;1317;24291;-77
2021/11/10 22:14:01;;;;;;;10.40;6.70;;;;;;;5.75;69.79;99635.47;215389;1317;24404;-76
2021/11/10 22:19:05;;;;;;;10.30;6.80;;;;;;;5.73;70.34;99633.36;215738;1318;25393;-76
2021/11/10 22:24:07;;;;;;;10.20;6.90;;;;;;;5.78;70.34;99630.70;216117;1317;24299;-77
2021/11/10 22:29:10;;;;;;;10.30;6.90;;;;;;;5.81;70.41;99621.14;215998;1316;24292;-76
2021/11/10 22:34:13;;;;;;;12.20;7.70;;;;;;;5.82;70.69;99628.77;215785;1319;25438;-77
2021/11/10 22:39:15;;;;;;;11.80;8.00;;;;;;;5.84;70.68;99624.12;215727;1319;25689;-76
2021/11/10 22:44:18;;;;;;;12.40;8.60;;;;;;;5.82;70.71;99625.09;215925;1318;24317;-76
2021/11/10 22:49:21;;;;;;;13.40;8.10;;;;;;;5.78;71.17;99623.79;215982;1316;22648;-76
2021/11/10 22:54:24;;;;;;;13.20;7.70;;;;;;;5.76;71.26;99628.65;216149;1317;25323;-76
2021/11/10 22:59:27;;;;;;;11.70;8.00;;;;;;;5.76;71.64;99633.48;215677;1316;24253;-77
2021/11/10 23:04:30;;;;;;;11.60;8.60;;;;;;;5.73;71.69;99629.28;215186;1316;24368;-77
2021/11/10 23:09:33;;;;;;;13.80;8.40;;;;;;;5.70;71.69;99611.59;215658;1319;25128;-77
2021/11/10 23:14:36;;;;;;;11.80;8.40;;;;;;;5.67;71.91;99614.14;215984;1318;22614;-76
2021/11/10 23:19:39;;;;;;;13.30;9.40;;;;;;;5.65;72.06;99612.25;215637;1317;22581;-76
2021/11/10 23:24:43;;;;;;;11.20;8.30;;;;;;;5.64;72.43;99616.66;215829;1316;24363;-76
2021/11/10 23:29:46;;;;;;;13.80;9.60;;;;;;;5.63;72.53;99622.80;215675;1318;24311;-76
2021/11/10 23:34:48;;;;;;;13.80;8.90;;;;;;;5.60;72.55;99618.70;216039;1317;22588;-76
2021/11/10 23:39:51;;;;;;;15.10;9.90;;;;;;;5.59;72.86;99615.54;215515;1316;22583;-76
2021/11/10 23:44:56;;;;;;;14.60;10.20;;;;;;;5.56;72.86;99614.05;215500;1316;24267;-76